Dacula, GA (30019)

4:01 PM EDT on July 23, 2016 (GMT -0400)
Dacula, GA | | Change Station

Elev 1007 ft 33.96 °N, 83.86 °W | Updated 57 seconds ago

Rain
Rain
73.9 °F
Feels Like 71 °F
N
1.6
Wind Variable Wind from North
Gusts 4.5 mph

Today
High -- | Low -- °F
--% Chance of Precip.
Yesterday
High -- | Low -- °F
Precip. -- in
Pressure 30.07 in
Visibility 10.0 miles
Clouds Scattered Clouds 5500 ft
Heat Index 71 °F
Dew Point 72 °F
Humidity 94%
Rainfall 0.76 in
Snow Depth Not available.
6:41 AM 8:42 PM
Waning Gibbous, 83% visible
METAR KWDR 231955Z AUTO 04007KT 10SM SCT055 27/22 A3007 RMK AO1 LTG DSNT SE
Pressure 30.07 in
Visibility 10.0 miles
Clouds Scattered Clouds 5500 ft
Heat Index 71 °F
Dew Point 72 °F
Humidity 94%
Rainfall 0.76 in
Snow Depth Not available.
6:41 AM 8:42 PM
Waning Gibbous, 83% visible
METAR KWDR 231955Z AUTO 04007KT 10SM SCT055 27/22 A3007 RMK AO1 LTG DSNT SE

10-Day Weather Forecast

Almanac

Astronomy

Jul. 23, 2016 Rise Set
Actual Time
Civil Twilight
Nautical Twilight
Astronomical Twilight
Moon
Length of Visible Light
Length of Day
Tomorrow will be .
, % of the Moon is Illuminated

Today's Extremes

State Highs State Lows

Community

WunderPhotos

Upload Photos

1,926,909 photos uploaded!

WunderBlog® & News

Nearby

Air Quality

  Air Quality AQ Index Pollutant
Not available.

Snow Depth

Station Depth Elevation

Earthquake Activity

City Distance Mag. Time & Date
Minimum magnitude displayed is 2.5.

Coastal Water Temperatures

Place Temperature

Stations

Nearby Weather Stations

Station Location Temp. Windchill Dew Point Humidity Wind Precip. Elev Updated Type
                   

Watches & Warnings

There are currently no watches in effect.